Time;durP1;ratioP1;P1;durP2;ratioP2;P2;SDS_P1;SDS_P2;PMS_P1;PMS_P2;Temp;Humidity;BMP_temperature;BMP_pressure;BME280_temperature;BME280_humidity;BME280_pressure;Samples;Min_cycle;Max_cycle;Signal;HPM_P1;HPM_P2
2023/08/17 00:01:00;;;;;;;;;;;;;;;28.98;29.30;101470.75;5075215;28;19923;-63
2023/08/17 00:03:25;;;;;;;;;;;;;;;28.88;29.08;101471.69;5094027;28;19988;-63
2023/08/17 00:05:51;;;;;;;;;;;;;;;28.77;29.55;101473.72;5095573;28;19912;-63
2023/08/17 00:08:17;;;;;;;;;;;;;;;28.76;29.37;101483.13;5095419;28;20263;-63
2023/08/17 00:10:42;;;;;;;;;;;;;;;28.65;29.50;101475.22;5095375;28;19912;-64
2023/08/17 00:13:07;;;;;;;;;;;;;;;28.62;29.56;101481.31;5095526;28;19912;-63
2023/08/17 00:15:33;;;;;;;;;;;;;;;28.53;29.34;101481.16;5095373;28;19912;-63
2023/08/17 00:17:58;;;;;;;;;;;;;;;28.50;29.73;101473.41;5095098;28;20280;-63
2023/08/17 00:20:23;;;;;;;;;;;;;;;28.43;29.75;101475.66;5095236;28;20006;-63
2023/08/17 00:22:49;;;;;;;;;;;;;;;28.39;29.54;101473.47;5095047;28;20311;-63
2023/08/17 00:25:14;;;;;;;;;;;;;;;28.33;29.81;101485.69;5095086;28;19965;-63
2023/08/17 00:27:39;;;;;;;;;;;;;;;28.24;29.84;101484.66;5094885;28;19919;-63
2023/08/17 00:30:05;;;;;;;;;;;;;;;28.21;30.18;101498.22;5094937;28;19912;-63
2023/08/17 00:32:30;;;;;;;;;;;;;;;28.14;29.86;101496.63;5095029;28;19919;-63
2023/08/17 00:34:55;;;;;;;;;;;;;;;28.10;29.93;101498.31;5088430;28;20363;-63
2023/08/17 00:37:21;;;;;;;;;;;;;;;28.09;29.93;101493.88;5074687;28;19947;-63
2023/08/17 00:39:46;;;;;;;;;;;;;;;28.10;29.99;101489.19;5074526;28;19913;-64
2023/08/17 00:42:11;;;;;;;;;;;;;;;28.05;29.92;101494.75;5073639;28;20281;-63
2023/08/17 00:44:36;;;;;;;;;;;;;;;27.99;29.86;101496.72;5074217;28;20067;-63
2023/08/17 00:47:02;;;;;;;;;;;;;;;27.95;29.77;101492.88;5074360;28;19958;-63
2023/08/17 00:49:29;;;;;;;;;;;;;;;27.90;30.40;101495.69;5074416;28;19966;-63
2023/08/17 00:51:54;;;;;;;;;;;;;;;27.86;29.90;101495.38;5074214;28;19924;-63
2023/08/17 00:54:23;;;;;;;;;;;;;;;27.83;29.98;101493.19;5073487;28;19952;-63
2023/08/17 00:56:48;;;;;;;;;;;;;;;27.80;29.94;101493.75;5074463;28;19918;-63
2023/08/17 00:59:14;;;;;;;;;;;;;;;27.77;29.76;101497.91;5074076;28;20003;-63
2023/08/17 01:01:39;;;;;;;;;;;;;;;27.76;30.08;101495.44;5075907;28;19912;-63
2023/08/17 01:04:04;;;;;;;;;;;;;;;27.70;30.07;101504.88;5094160;28;19974;-63
2023/08/17 01:06:29;;;;;;;;;;;;;;;27.67;30.07;101505.41;5094473;28;19913;-63
2023/08/17 01:08:55;;;;;;;;;;;;;;;27.65;29.91;101508.47;5094262;28;19912;-63
2023/08/17 01:11:36;;;;;;;;;;;;;;;27.60;30.08;101516.78;5093953;28;19917;-63
2023/08/17 01:14:02;;;;;;;;;;;;;;;27.59;30.00;101512.34;5094333;28;19955;-63
2023/08/17 01:16:29;;;;;;;;;;;;;;;27.57;30.06;101511.81;5093941;28;19974;-63
2023/08/17 01:18:55;;;;;;;;;;;;;;;27.54;29.98;101521.47;5094364;28;19916;-63
2023/08/17 01:21:23;;;;;;;;;;;;;;;27.51;30.05;101522.06;5093977;28;20361;-62
2023/08/17 01:23:51;;;;;;;;;;;;;;;27.48;29.96;101525.38;5094202;28;20261;-62
2023/08/17 01:26:17;;;;;;;;;;;;;;;27.49;29.80;101532.56;5094007;28;19919;-62
2023/08/17 01:28:43;;;;;;;;;;;;;;;27.47;29.81;101545.81;5094089;28;19912;-63
2023/08/17 01:31:14;;;;;;;;;;;;;;;27.43;30.00;101541.94;5093857;28;20540;-62
2023/08/17 01:33:52;;;;;;;;;;;;;;;27.41;30.00;101555.19;5093652;28;19912;-63
2023/08/17 01:36:20;;;;;;;;;;;;;;;27.38;30.28;101555.78;5093920;28;19912;-63
2023/08/17 01:38:46;;;;;;;;;;;;;;;27.28;30.18;101555.78;5093895;28;19912;-63
2023/08/17 01:41:15;;;;;;;;;;;;;;;27.25;30.24;101565.41;5073181;28;20041;-63
2023/08/17 01:43:42;;;;;;;;;;;;;;;27.28;29.91;101569.56;5072928;28;19959;-63
2023/08/17 01:46:07;;;;;;;;;;;;;;;27.27;30.17;101567.94;5055154;28;19917;-63
2023/08/17 01:48:33;;;;;;;;;;;;;;;27.30;30.29;101579.22;5073016;28;19986;-63
2023/08/17 01:50:58;;;;;;;;;;;;;;;27.31;30.00;101580.88;5072802;28;19974;-63
2023/08/17 01:53:23;;;;;;;;;;;;;;;27.37;29.94;101588.03;5073053;28;19912;-63
2023/08/17 01:55:48;;;;;;;;;;;;;;;27.38;30.23;101588.88;5071448;28;19913;-63
2023/08/17 01:58:14;;;;;;;;;;;;;;;27.40;30.31;101595.75;5073093;28;19924;-63
2023/08/17 02:00:39;;;;;;;;;;;;;;;27.43;30.23;101591.59;5073110;28;19919;-63
2023/08/17 02:03:04;;;;;;;;;;;;;;;27.43;30.00;101597.13;5088990;28;20592;-63
2023/08/17 02:05:35;;;;;;;;;;;;;;;27.50;30.17;101594.06;5093513;28;20566;-63
2023/08/17 02:08:00;;;;;;;;;;;;;;;27.51;30.15;101607.59;5093186;28;19954;-63
2023/08/17 02:10:25;;;;;;;;;;;;;;;27.52;30.00;101600.13;5093463;28;19955;-63
2023/08/17 02:12:50;;;;;;;;;;;;;;;27.54;30.31;101604.25;5088488;28;19923;-63
2023/08/17 02:15:16;;;;;;;;;;;;;;;27.59;29.86;101604.25;5072555;28;20009;-62
2023/08/17 02:17:41;;;;;;;;;;;;;;;27.58;30.16;101608.13;5073282;28;19966;-63
2023/08/17 02:20:08;;;;;;;;;;;;;;;27.58;30.20;101608.13;5072949;28;19913;-63
2023/08/17 02:22:33;;;;;;;;;;;;;;;27.59;30.04;101617.22;5073066;28;19912;-62
2023/08/17 02:24:59;;;;;;;;;;;;;;;27.57;30.43;101613.94;5072704;28;19912;-63
2023/08/17 02:27:24;;;;;;;;;;;;;;;27.59;30.09;101617.22;5054817;28;19916;-63
2023/08/17 02:29:49;;;;;;;;;;;;;;;27.64;30.20;101622.75;5072547;28;19938;-64
2023/08/17 02:32:14;;;;;;;;;;;;;;;27.63;30.13;101615.56;5072571;28;19943;-63
2023/08/17 02:34:40;;;;;;;;;;;;;;;27.63;30.01;101611.97;5072842;28;19912;-63
2023/08/17 02:37:05;;;;;;;;;;;;;;;27.63;30.09;101614.75;5072532;28;19912;-63
2023/08/17 02:39:30;;;;;;;;;;;;;;;27.63;30.15;101614.75;5054812;28;19917;-63
2023/08/17 02:41:56;;;;;;;;;;;;;;;27.65;30.17;101616.09;5072237;28;19917;-63
2023/08/17 02:44:21;;;;;;;;;;;;;;;27.60;30.26;101616.13;5065122;28;19916;-63
2023/08/17 02:46:46;;;;;;;;;;;;;;;27.58;30.27;101613.66;5071385;28;19912;-63
2023/08/17 02:49:12;;;;;;;;;;;;;;;27.55;30.14;101621.66;5072526;28;19917;-63
2023/08/17 02:51:37;;;;;;;;;;;;;;;27.55;30.09;101628.00;5072751;28;20385;-63
2023/08/17 02:54:03;;;;;;;;;;;;;;;27.56;30.21;101628.81;5071856;28;19913;-63
2023/08/17 02:56:28;;;;;;;;;;;;;;;27.58;30.08;101630.22;5072378;28;19912;-63
2023/08/17 02:58:53;;;;;;;;;;;;;;;27.58;30.20;101627.44;5072347;28;19913;-63
2023/08/17 03:01:18;;;;;;;;;;;;;;;27.61;30.07;101643.44;5073659;28;20306;-63
2023/08/17 03:03:44;;;;;;;;;;;;;;;27.60;30.05;101641.78;5092422;28;19932;-63
2023/08/17 03:06:09;;;;;;;;;;;;;;;27.56;30.15;101643.47;5093939;28;20291;-63
2023/08/17 03:08:35;;;;;;;;;;;;;;;27.63;30.01;101656.13;5096823;28;19916;-63
2023/08/17 03:11:00;;;;;;;;;;;;;;;27.61;30.36;101646.19;5097065;28;20284;-62
2023/08/17 03:13:25;;;;;;;;;;;;;;;27.59;30.09;101650.34;5083809;28;19970;-63
2023/08/17 03:15:54;;;;;;;;;;;;;;;27.59;30.25;101659.44;5076272;28;19913;-63
2023/08/17 03:18:19;;;;;;;;;;;;;;;27.58;30.22;101654.19;5076083;28;19920;-63
2023/08/17 03:20:45;;;;;;;;;;;;;;;27.53;30.02;101657.00;5058075;28;20443;-63
2023/08/17 03:23:14;;;;;;;;;;;;;;;27.48;29.96;101657.81;5076573;28;19951;-63
2023/08/17 03:25:39;;;;;;;;;;;;;;;27.49;29.97;101662.25;5041330;28;20316;-63
2023/08/17 03:28:05;;;;;;;;;;;;;;;27.52;30.00;101652.56;5075924;28;19912;-63
2023/08/17 03:30:30;;;;;;;;;;;;;;;27.51;30.12;101656.44;5075451;28;20356;-63
2023/08/17 03:32:55;;;;;;;;;;;;;;;27.51;29.85;101665.53;5075492;28;19913;-63
2023/08/17 03:35:21;;;;;;;;;;;;;;;27.49;29.91;101665.00;5075480;28;19912;-63
2023/08/17 03:37:46;;;;;;;;;;;;;;;27.44;29.81;101661.41;5075381;28;20016;-63
2023/08/17 03:40:11;;;;;;;;;;;;;;;27.42;30.30;101665.28;5075730;28;19926;-63
2023/08/17 03:42:37;;;;;;;;;;;;;;;27.45;30.01;101672.19;5075400;28;19919;-63
2023/08/17 03:45:03;;;;;;;;;;;;;;;27.40;30.05;101672.19;5075576;28;20279;-63
2023/08/17 03:47:28;;;;;;;;;;;;;;;27.40;30.06;101678.53;5075313;28;20560;-63
2023/08/17 03:49:53;;;;;;;;;;;;;;;27.41;30.21;101690.38;5075257;28;19916;-63
2023/08/17 03:52:18;;;;;;;;;;;;;;;27.43;30.04;101682.66;5075222;28;20438;-63
2023/08/17 03:54:44;;;;;;;;;;;;;;;27.48;30.11;101690.09;5074409;28;19920;-63
2023/08/17 03:57:09;;;;;;;;;;;;;;;27.48;30.07;101690.09;5074832;28;19912;-63
2023/08/17 03:59:34;;;;;;;;;;;;;;;27.48;30.05;101693.69;5074860;28;20311;-63
2023/08/17 04:02:00;;;;;;;;;;;;;;;27.51;29.63;101700.59;5082002;28;19916;-62
2023/08/17 04:04:27;;;;;;;;;;;;;;;27.47;29.73;101707.75;5094960;28;20359;-63
2023/08/17 04:06:52;;;;;;;;;;;;;;;27.50;29.81;101707.22;5095071;28;19955;-63
2023/08/17 04:09:17;;;;;;;;;;;;;;;27.46;29.98;101698.66;5095209;28;20010;-62
2023/08/17 04:11:43;;;;;;;;;;;;;;;27.48;29.98;101701.97;5094955;28;20365;-63
2023/08/17 04:14:08;;;;;;;;;;;;;;;27.48;29.96;101707.47;5095388;28;19912;-63
2023/08/17 04:16:34;;;;;;;;;;;;;;;27.46;29.69;101708.88;5095127;28;19919;-63
2023/08/17 04:18:59;;;;;;;;;;;;;;;27.45;29.85;101715.47;5094137;28;19948;-62
2023/08/17 04:21:25;;;;;;;;;;;;;;;27.45;29.65;101716.34;5095200;28;20003;-62
2023/08/17 04:23:50;;;;;;;;;;;;;;;27.45;29.48;101721.00;5077201;28;19966;-63
2023/08/17 04:26:15;;;;;;;;;;;;;;;27.44;29.49;101722.94;5094828;28;19912;-62
2023/08/17 04:28:40;;;;;;;;;;;;;;;27.44;29.65;101722.13;5085187;28;19920;-62
2023/08/17 04:31:06;;;;;;;;;;;;;;;27.43;30.25;101715.75;5074752;28;20262;-62
2023/08/17 04:33:31;;;;;;;;;;;;;;;27.44;29.69;101722.94;5075336;28;19924;-62
2023/08/17 04:35:59;;;;;;;;;;;;;;;27.51;29.64;101728.19;5076002;28;19983;-63
2023/08/17 04:38:24;;;;;;;;;;;;;;;27.48;29.84;101725.97;5077102;28;19963;-62
2023/08/17 04:40:50;;;;;;;;;;;;;;;27.51;30.02;101726.25;5076951;28;19912;-62
2023/08/17 04:43:15;;;;;;;;;;;;;;;27.59;29.71;101731.19;5058266;28;20320;-62
2023/08/17 04:45:40;;;;;;;;;;;;;;;27.63;29.52;101737.00;5074175;28;19916;-62
2023/08/17 04:48:06;;;;;;;;;;;;;;;27.60;29.50;101732.88;5074550;28;20003;-62
2023/08/17 04:50:31;;;;;;;;;;;;;;;27.59;29.26;101731.19;5074134;28;20023;-64
2023/08/17 04:52:56;;;;;;;;;;;;;;;27.58;29.40;101737.84;5074477;28;19919;-62
2023/08/17 04:55:22;;;;;;;;;;;;;;;27.52;29.37;101740.88;5073109;28;19912;-62
2023/08/17 04:57:47;;;;;;;;;;;;;;;27.52;29.50;101740.88;5073955;28;19932;-62
2023/08/17 05:00:13;;;;;;;;;;;;;;;27.56;29.50;101739.19;5056024;28;19913;-62
2023/08/17 05:02:39;;;;;;;;;;;;;;;27.59;29.11;101745.00;5086011;28;19912;-62
2023/08/17 05:05:05;;;;;;;;;;;;;;;27.58;29.78;101743.38;5094079;28;19916;-62
2023/08/17 05:07:30;;;;;;;;;;;;;;;27.60;29.43;101749.44;5094501;28;19976;-63
2023/08/17 05:09:56;;;;;;;;;;;;;;;27.63;29.10;101741.69;5094090;28;20372;-62
2023/08/17 05:12:25;;;;;;;;;;;;;;;27.69;29.19;101760.75;5085868;28;19925;-62
2023/08/17 05:14:50;;;;;;;;;;;;;;;27.69;29.04;101751.63;5073814;28;19919;-62
2023/08/17 05:17:16;;;;;;;;;;;;;;;27.63;29.48;101752.75;5073728;28;20356;-62
2023/08/17 05:19:41;;;;;;;;;;;;;;;27.69;29.35;101760.75;5073835;28;19917;-62
2023/08/17 05:22:11;;;;;;;;;;;;;;;27.63;29.42;101761.00;5055408;28;20599;-64
2023/08/17 05:24:36;;;;;;;;;;;;;;;27.67;29.47;101764.88;5073391;28;19967;-61
2023/08/17 05:27:01;;;;;;;;;;;;;;;27.66;29.54;101763.22;5073299;28;20060;-61
2023/08/17 05:29:26;;;;;;;;;;;;;;;27.72;29.09;101764.88;5073359;28;19912;-64
2023/08/17 05:31:52;;;;;;;;;;;;;;;27.77;29.39;101771.22;5073372;28;19916;-64
2023/08/17 05:34:17;;;;;;;;;;;;;;;27.83;29.33;101774.78;5073539;28;19912;-64
2023/08/17 05:36:43;;;;;;;;;;;;;;;27.87;29.04;101773.13;5073371;28;19923;-64
2023/08/17 05:39:09;;;;;;;;;;;;;;;27.94;28.50;101770.13;5073160;28;19913;-64
2023/08/17 05:41:34;;;;;;;;;;;;;;;27.92;28.98;101773.16;5073076;28;19916;-63
2023/08/17 05:44:00;;;;;;;;;;;;;;;27.67;29.06;101737.28;5073197;28;19952;-63
2023/08/17 05:46:25;;;;;;;;;;;;;;;27.92;29.09;101778.69;5073289;28;19912;-63
2023/08/17 05:48:50;;;;;;;;;;;;;;;27.48;29.51;101784.75;5073103;28;19912;-63
2023/08/17 05:51:15;;;;;;;;;;;;;;;27.80;29.56;101772.59;5072682;28;19917;-63
2023/08/17 05:53:41;;;;;;;;;;;;;;;27.56;29.82;101781.44;5072206;28;19942;-63
2023/08/17 05:56:06;;;;;;;;;;;;;;;27.92;29.52;101784.19;5072798;28;20336;-64
2023/08/17 05:58:32;;;;;;;;;;;;;;;28.09;29.07;101799.66;5073046;28;19913;-63
2023/08/17 06:01:07;;;;;;;;;;;;;;;28.22;28.74;101792.72;5072921;28;19912;-64
2023/08/17 06:03:32;;;;;;;;;;;;;;;28.24;28.60;101799.59;5092821;28;20375;-64
2023/08/17 06:05:58;;;;;;;;;;;;;;;28.25;28.71;101804.03;5093186;28;19996;-64
2023/08/17 06:08:23;;;;;;;;;;;;;;;28.35;28.57;101798.44;5093043;28;19938;-63
2023/08/17 06:10:48;;;;;;;;;;;;;;;28.39;27.98;101799.53;5092833;28;19923;-63
2023/08/17 06:13:14;;;;;;;;;;;;;;;28.42;28.87;101805.59;5092921;28;20155;-64
2023/08/17 06:15:39;;;;;;;;;;;;;;;28.45;27.98;101805.06;5092868;28;20433;-63
2023/08/17 06:18:06;;;;;;;;;;;;;;;28.48;28.13;101810.03;5084077;28;20291;-63
2023/08/17 06:20:31;;;;;;;;;;;;;;;28.54;28.11;101808.94;5072524;28;20006;-63
2023/08/17 06:22:56;;;;;;;;;;;;;;;28.57;28.16;101811.13;5072803;28;20022;-63
2023/08/17 06:25:22;;;;;;;;;;;;;;;28.63;28.11;101807.22;5072545;28;20261;-63
2023/08/17 06:27:48;;;;;;;;;;;;;;;28.68;28.32;101818.28;5054598;28;19998;-64
2023/08/17 06:30:14;;;;;;;;;;;;;;;28.75;28.20;101817.94;5072343;28;20024;-64
2023/08/17 06:32:39;;;;;;;;;;;;;;;28.77;27.55;101815.75;5072490;28;20392;-62
2023/08/17 06:35:05;;;;;;;;;;;;;;;28.79;27.23;101818.22;5072479;28;20019;-63
2023/08/17 06:37:30;;;;;;;;;;;;;;;28.87;27.63;101823.97;5072594;28;19924;-63
2023/08/17 06:39:55;;;;;;;;;;;;;;;28.92;27.27;101825.91;5072579;28;19912;-63
2023/08/17 06:42:21;;;;;;;;;;;;;;;29.02;27.63;101825.03;5075976;28;19916;-63
2023/08/17 06:44:46;;;;;;;;;;;;;;;29.12;27.90;101836.00;5076523;28;20333;-63
2023/08/17 06:47:11;;;;;;;;;;;;;;;29.18;27.60;101846.00;5076808;28;19913;-64
2023/08/17 06:49:37;;;;;;;;;;;;;;;29.23;27.23;101842.34;5076615;28;19913;-64
2023/08/17 06:52:02;;;;;;;;;;;;;;;29.29;27.69;101843.97;5076473;28;19917;-64
2023/08/17 06:54:27;;;;;;;;;;;;;;;29.37;27.34;101846.13;5075917;28;19966;-64
2023/08/17 06:56:53;;;;;;;;;;;;;;;29.40;27.35;101842.81;5076117;28;19916;-64
2023/08/17 06:59:18;;;;;;;;;;;;;;;29.44;26.97;101849.41;5076229;28;19943;-64
2023/08/17 07:01:44;;;;;;;;;;;;;;;29.49;28.25;101854.91;5081128;28;19916;-64
2023/08/17 07:04:09;;;;;;;;;;;;;;;29.53;27.71;101856.00;5096450;28;19927;-64
2023/08/17 07:06:34;;;;;;;;;;;;;;;29.62;27.06;101858.94;5078339;28;19916;-64
2023/08/17 07:08:59;;;;;;;;;;;;;;;29.63;27.34;101859.78;5096324;28;19912;-64
2023/08/17 07:11:25;;;;;;;;;;;;;;;29.66;27.34;101862.81;5096389;28;19920;-64
2023/08/17 07:13:50;;;;;;;;;;;;;;;29.58;27.10;101865.38;5096595;28;20009;-64
2023/08/17 07:16:16;;;;;;;;;;;;;;;29.69;27.27;101876.06;5084288;28;19916;-65
2023/08/17 07:18:41;;;;;;;;;;;;;;;29.72;26.92;101875.50;5057844;28;20341;-65
2023/08/17 07:21:07;;;;;;;;;;;;;;;29.75;26.97;101878.84;5075961;28;19919;-63
2023/08/17 07:23:32;;;;;;;;;;;;;;;29.76;26.29;101881.31;5075914;28;19913;-65
2023/08/17 07:25:57;;;;;;;;;;;;;;;29.80;27.13;101876.84;5075807;28;19913;-65
2023/08/17 07:28:23;;;;;;;;;;;;;;;29.87;27.38;101876.53;5075787;28;19912;-64
2023/08/17 07:30:48;;;;;;;;;;;;;;;29.92;27.11;101882.84;5075338;28;19928;-65
2023/08/17 07:33:13;;;;;;;;;;;;;;;29.97;26.67;101890.28;5074795;28;19916;-65
2023/08/17 07:35:38;;;;;;;;;;;;;;;30.00;26.18;101895.25;5057861;28;19919;-65
2023/08/17 07:38:04;;;;;;;;;;;;;;;30.09;26.21;101901.81;5075645;28;20365;-65
2023/08/17 07:40:29;;;;;;;;;;;;;;;30.16;26.40;101900.63;5075749;28;19912;-65
2023/08/17 07:42:54;;;;;;;;;;;;;;;30.18;25.78;101906.72;5075743;28;19917;-65
2023/08/17 07:45:19;;;;;;;;;;;;;;;30.23;26.91;101904.72;5075587;28;20548;-65
2023/08/17 07:47:45;;;;;;;;;;;;;;;30.29;25.41;101909.13;5075390;28;20046;-65
2023/08/17 07:50:10;;;;;;;;;;;;;;;30.35;26.66;101909.91;5075057;28;20253;-65
2023/08/17 07:52:36;;;;;;;;;;;;;;;30.44;26.12;101921.19;5074086;28;19920;-65
2023/08/17 07:55:01;;;;;;;;;;;;;;;30.51;25.99;101921.66;5073234;28;19943;-65
2023/08/17 07:57:26;;;;;;;;;;;;;;;30.60;25.45;101917.13;5075318;28;20386;-65
2023/08/17 07:59:53;;;;;;;;;;;;;;;30.57;25.66;101926.06;5075450;28;19917;-65
2023/08/17 08:02:18;;;;;;;;;;;;;;;30.56;25.10;101932.72;5084761;28;19912;-65
2023/08/17 08:04:44;;;;;;;;;;;;;;;30.60;25.16;101928.22;5095114;28;19970;-65
2023/08/17 08:07:10;;;;;;;;;;;;;;;30.58;24.96;101930.47;5095198;28;19912;-65
2023/08/17 08:09:35;;;;;;;;;;;;;;;30.51;25.38;101927.22;5095492;28;19973;-65
2023/08/17 08:12:01;;;;;;;;;;;;;;;30.54;25.18;101934.13;5095344;28;20014;-65
2023/08/17 08:14:26;;;;;;;;;;;;;;;30.56;24.93;101940.22;5079544;28;20353;-65
2023/08/17 08:16:52;;;;;;;;;;;;;;;30.55;25.69;101939.34;5057013;28;20331;-65
2023/08/17 08:19:17;;;;;;;;;;;;;;;30.46;24.75;101933.66;5074888;28;19917;-65
2023/08/17 08:21:42;;;;;;;;;;;;;;;30.49;25.12;101932.22;5074988;28;20007;-65
2023/08/17 08:24:08;;;;;;;;;;;;;;;30.50;24.94;101933.88;5074618;28;19947;-65
2023/08/17 08:26:33;;;;;;;;;;;;;;;30.55;25.22;101939.34;5056718;28;19963;-65
2023/08/17 08:28:58;;;;;;;;;;;;;;;30.55;25.52;101941.31;5074462;28;20321;-65
2023/08/17 08:31:23;;;;;;;;;;;;;;;30.56;25.37;101941.03;5074815;28;19920;-65
2023/08/17 08:33:49;;;;;;;;;;;;;;;30.64;25.17;101945.09;5074276;28;19916;-65
2023/08/17 08:36:14;;;;;;;;;;;;;;;30.58;24.87;101941.56;5074436;28;20278;-65
2023/08/17 08:38:39;;;;;;;;;;;;;;;30.62;24.78;101950.13;5056467;28;20062;-65
2023/08/17 08:41:08;;;;;;;;;;;;;;;30.56;25.25;101949.34;5074639;28;19921;-65
2023/08/17 08:43:34;;;;;;;;;;;;;;;30.59;24.83;101948.78;5074507;28;19913;-65
2023/08/17 08:45:59;;;;;;;;;;;;;;;30.68;25.38;101952.56;5039863;28;19935;-65
2023/08/17 08:48:26;;;;;;;;;;;;;;;30.76;24.99;101953.00;5074465;28;19923;-65
2023/08/17 08:50:53;;;;;;;;;;;;;;;30.81;25.24;101950.19;5074066;28;19917;-65
2023/08/17 08:53:22;;;;;;;;;;;;;;;30.95;24.84;101944.78;5074135;28;19940;-65
2023/08/17 08:55:53;;;;;;;;;;;;;;;31.13;24.60;101948.72;5055573;28;19923;-65
2023/08/17 08:58:19;;;;;;;;;;;;;;;31.27;24.90;101947.69;5074240;28;19920;-65
2023/08/17 09:00:46;;;;;;;;;;;;;;;31.51;25.16;101952.41;5074065;28;20257;-63
2023/08/17 09:03:11;;;;;;;;;;;;;;;31.68;24.50;101953.84;5090191;28;19927;-63
2023/08/17 09:05:38;;;;;;;;;;;;;;;31.81;25.94;101940.00;5094390;28;19916;-63
2023/08/17 09:08:03;;;;;;;;;;;;;;;32.01;24.66;101938.84;5094099;28;19958;-63
2023/08/17 09:10:29;;;;;;;;;;;;;;;32.14;24.37;101942.00;5079696;28;19940;-63
2023/08/17 09:12:54;;;;;;;;;;;;;;;32.28;23.88;101936.47;5074024;28;19916;-64
2023/08/17 09:15:19;;;;;;;;;;;;;;;32.46;24.45;101932.81;5073652;28;20014;-64
2023/08/17 09:17:46;;;;;;;;;;;;;;;32.63;24.36;101940.56;5073696;28;20349;-63
2023/08/17 09:20:11;;;;;;;;;;;;;;;32.78;23.69;101939.44;5073698;28;19917;-63
2023/08/17 09:22:41;;;;;;;;;;;;;;;32.83;23.44;101939.34;5073422;28;20015;-63
2023/08/17 09:25:06;;;;;;;;;;;;;;;32.91;23.14;101935.88;5072951;28;19978;-63
2023/08/17 09:27:32;;;;;;;;;;;;;;;32.96;23.90;101935.75;5073223;28;20343;-64
2023/08/17 09:30:01;;;;;;;;;;;;;;;33.10;23.23;101934.94;5073150;28;19961;-64
2023/08/17 09:32:30;;;;;;;;;;;;;;;33.18;22.88;101929.47;5072727;28;19923;-63
2023/08/17 09:34:55;;;;;;;;;;;;;;;33.32;23.82;101920.25;5073397;28;20409;-63
2023/08/17 09:37:20;;;;;;;;;;;;;;;33.40;23.29;101927.88;5073058;28;20031;-63
2023/08/17 09:39:45;;;;;;;;;;;;;;;33.49;23.96;101919.59;5072920;28;19912;-64
2023/08/17 09:42:11;;;;;;;;;;;;;;;33.50;23.56;101919.25;5072772;28;19919;-63
2023/08/17 09:44:37;;;;;;;;;;;;;;;33.56;22.99;101919.97;5072903;28;20053;-63
2023/08/17 09:47:04;;;;;;;;;;;;;;;33.60;23.71;101920.16;5072930;28;19917;-63
2023/08/17 09:49:31;;;;;;;;;;;;;;;33.61;23.72;101922.63;5072972;28;20007;-63
2023/08/17 09:51:59;;;;;;;;;;;;;;;33.63;23.54;101914.78;5072706;28;19917;-64
2023/08/17 09:54:26;;;;;;;;;;;;;;;33.65;24.44;101914.50;5071882;28;20415;-63
2023/08/17 09:56:52;;;;;;;;;;;;;;;33.74;23.99;101918.19;5072730;28;19916;-63
2023/08/17 09:59:17;;;;;;;;;;;;;;;33.84;23.42;101920.72;5073159;28;20265;-64
2023/08/17 10:01:44;;;;;;;;;;;;;;;33.84;24.04;101914.31;5072975;28;20239;-64
2023/08/17 10:04:11;;;;;;;;;;;;;;;33.94;24.10;101916.84;5072634;28;20375;-64
2023/08/17 10:06:38;;;;;;;;;;;;;;;33.92;23.49;101916.34;5072656;28;20411;-64
2023/08/17 10:09:04;;;;;;;;;;;;;;;33.80;23.45;101907.72;5072802;28;19913;-64
2023/08/17 10:11:31;;;;;;;;;;;;;;;33.83;23.36;101909.91;5073001;28;19916;-64
2023/08/17 10:14:00;;;;;;;;;;;;;;;33.91;23.55;101917.47;5072774;28;19965;-64
2023/08/17 10:16:25;;;;;;;;;;;;;;;34.05;23.96;101912.66;5071764;28;19916;-64
2023/08/17 10:18:55;;;;;;;;;;;;;;;34.20;23.47;101919.03;5072364;28;19920;-64
2023/08/17 10:21:32;;;;;;;;;;;;;;;34.35;23.44;101923.38;5072419;28;19924;-64
2023/08/17 10:23:57;;;;;;;;;;;;;;;34.24;23.17;101911.66;5072653;28;19913;-64
2023/08/17 10:26:23;;;;;;;;;;;;;;;34.29;22.92;101919.88;5072629;28;19913;-64
2023/08/17 10:28:50;;;;;;;;;;;;;;;34.31;23.29;101912.84;5072444;28;19913;-64
2023/08/17 10:31:15;;;;;;;;;;;;;;;34.36;23.51;101920.25;5072434;28;19931;-65
2023/08/17 10:33:44;;;;;;;;;;;;;;;34.35;23.71;101928.94;5072752;28;20527;-64
2023/08/17 10:36:09;;;;;;;;;;;;;;;34.64;26.43;101922.81;5071424;28;19966;-64
2023/08/17 10:38:35;;;;;;;;;;;;;;;34.79;23.21;101921.59;5072703;28;19916;-63
2023/08/17 10:41:11;;;;;;;;;;;;;;;34.94;23.29;101921.16;5072249;28;20406;-64
2023/08/17 10:43:55;;;;;;;;;;;;;;;35.03;23.01;101926.75;5072122;28;19916;-64
2023/08/17 10:46:21;;;;;;;;;;;;;;;35.18;22.96;101922.66;5072188;28;19919;-64
2023/08/17 10:48:46;;;;;;;;;;;;;;;35.25;22.85;101917.44;5072125;28;19920;-64
2023/08/17 10:51:16;;;;;;;;;;;;;;;35.34;22.44;101923.03;5072163;28;20014;-64
2023/08/17 10:53:43;;;;;;;;;;;;;;;35.43;22.07;101929.47;5071655;28;19912;-64
2023/08/17 10:56:10;;;;;;;;;;;;;;;35.59;23.68;101933.41;5072068;28;20304;-65
2023/08/17 10:58:36;;;;;;;;;;;;;;;35.75;23.71;101930.97;5072594;28;19944;-66
2023/08/17 11:01:02;;;;;;;;;;;;;;;35.88;22.08;101936.72;5072312;28;19948;-66
2023/08/17 11:03:28;;;;;;;;;;;;;;;36.11;23.92;101937.31;5073279;28;20404;-66
2023/08/17 11:05:58;;;;;;;;;;;;;;;36.21;22.47;101925.81;5072243;28;19912;-65
2023/08/17 11:08:27;;;;;;;;;;;;;;;36.37;21.84;101920.50;5072274;28;19999;-65
2023/08/17 11:11:01;;;;;;;;;;;;;;;36.43;21.14;101919.97;5072111;28;19923;-65
2023/08/17 11:13:29;;;;;;;;;;;;;;;36.58;21.31;101923.38;5054403;28;20422;-64
2023/08/17 11:15:54;;;;;;;;;;;;;;;36.76;21.63;101929.75;5072440;28;19951;-64
2023/08/17 11:18:20;;;;;;;;;;;;;;;36.96;21.73;101933.72;5072422;28;19950;-64
2023/08/17 11:20:46;;;;;;;;;;;;;;;37.16;21.08;101935.78;5073468;28;20316;-64
2023/08/17 11:23:12;;;;;;;;;;;;;;;37.39;22.31;101935.47;5072727;28;20292;-64
2023/08/17 11:25:38;;;;;;;;;;;;;;;37.48;21.74;101941.81;5073451;28;19912;-64
2023/08/17 11:28:06;;;;;;;;;;;;;;;37.57;20.58;101934.16;5076626;28;20387;-64
2023/08/17 11:30:33;;;;;;;;;;;;;;;37.75;22.61;101942.44;5076295;28;19942;-64
2023/08/17 11:32:59;;;;;;;;;;;;;;;37.99;21.31;101938.09;5076204;28;19913;-64
2023/08/17 11:35:24;;;;;;;;;;;;;;;38.14;20.89;101935.47;5076087;28;19999;-64
2023/08/17 11:37:49;;;;;;;;;;;;;;;38.23;19.46;101940.97;5075969;28;19912;-64
2023/08/17 11:40:15;;;;;;;;;;;;;;;38.43;19.52;101939.25;5075848;28;20288;-64
2023/08/17 11:42:42;;;;;;;;;;;;;;;38.53;21.90;101933.19;5075242;28;19919;-64
2023/08/17 11:45:09;;;;;;;;;;;;;;;38.81;20.76;101937.31;5075493;28;19912;-65
2023/08/17 11:47:34;;;;;;;;;;;;;;;39.07;19.60;101936.97;5075572;28;19912;-64
2023/08/17 11:50:00;;;;;;;;;;;;;;;39.16;19.79;101932.03;5075772;28;19936;-64
2023/08/17 11:52:26;;;;;;;;;;;;;;;39.29;20.50;101941.25;5075693;28;20041;-64
2023/08/17 11:54:54;;;;;;;;;;;;;;;39.47;20.19;101931.38;5074697;28;20061;-65
2023/08/17 11:57:19;;;;;;;;;;;;;;;39.59;19.30;101949.38;5074780;28;19924;-64
2023/08/17 11:59:46;;;;;;;;;;;;;;;39.59;18.86;101930.50;5074795;28;19951;-65
2023/08/17 12:02:12;;;;;;;;;;;;;;;39.72;19.42;101936.09;5083723;28;20395;-65
2023/08/17 12:04:37;;;;;;;;;;;;;;;39.77;20.79;101933.84;5095104;28;19920;-65
2023/08/17 12:07:02;;;;;;;;;;;;;;;39.96;17.43;101936.00;5095352;28;20380;-65
2023/08/17 12:09:28;;;;;;;;;;;;;;;40.10;17.78;101940.38;5095175;28;19935;-65
2023/08/17 12:12:00;;;;;;;;;;;;;;;40.31;18.04;101940.13;5094933;28;19916;-65
2023/08/17 12:14:26;;;;;;;;;;;;;;;40.42;18.35;101941.25;5080567;28;19920;-65
2023/08/17 12:16:51;;;;;;;;;;;;;;;40.55;19.86;101928.69;5074945;28;20468;-65
2023/08/17 12:19:19;;;;;;;;;;;;;;;40.83;18.07;101930.59;5074827;28;19912;-65
2023/08/17 12:21:45;;;;;;;;;;;;;;;40.86;17.57;101940.31;5074934;28;19939;-65
2023/08/17 12:24:14;;;;;;;;;;;;;;;41.07;17.53;101928.72;5074862;28;19912;-65
2023/08/17 12:26:46;;;;;;;;;;;;;;;41.15;17.17;101928.50;5073383;28;19917;-65
2023/08/17 12:29:12;;;;;;;;;;;;;;;41.36;19.44;101925.34;5074661;28;19920;-65